Time;durP1;ratioP1;P1;durP2;ratioP2;P2;SDS_P1;SDS_P2;PMS_P1;PMS_P2;Temp;Humidity;BMP_temperature;BMP_pressure;BME280_temperature;BME280_humidity;BME280_pressure;Samples;Min_cycle;Max_cycle;Signal;HPM_P1;HPM_P2
2021/04/04 00:01:17;;;;;;;26.33;10.88;;;;;;;1.81;72.60;99037.56;3554147;27;20055;-52
2021/04/04 00:02:58;;;;;;;25.45;10.70;;;;;;;1.85;72.83;99036.91;3551474;27;20054;-51
2021/04/04 00:04:39;;;;;;;21.75;9.75;;;;;;;1.86;72.55;99040.31;3554369;27;20061;-48
2021/04/04 00:06:20;;;;;;;24.25;10.23;;;;;;;1.91;72.63;99042.22;3552617;27;20066;-49
2021/04/04 00:08:02;;;;;;;21.63;10.68;;;;;;;1.94;72.59;99049.16;3552287;27;20091;-46
2021/04/04 00:09:44;;;;;;;19.45;9.82;;;;;;;1.96;72.41;99044.09;3552798;27;20079;-45
2021/04/04 00:11:26;;;;;;;23.02;10.52;;;;;;;1.97;72.93;99048.41;3550531;27;20047;-45
2021/04/04 00:13:07;;;;;;;25.70;10.77;;;;;;;1.98;72.95;99051.00;3552564;27;20051;-45
2021/04/04 00:14:49;;;;;;;20.48;9.90;;;;;;;2.00;72.99;99048.50;3550708;27;20051;-45
2021/04/04 00:16:30;;;;;;;23.13;11.02;;;;;;;2.00;72.91;99051.94;3553908;27;20055;-45
2021/04/04 00:18:12;;;;;;;27.30;12.48;;;;;;;2.01;72.72;99047.72;3552595;27;20043;-46
2021/04/04 00:19:53;;;;;;;26.27;11.65;;;;;;;2.02;73.33;99046.88;3551779;27;20047;-45
2021/04/04 00:21:35;;;;;;;25.67;10.43;;;;;;;2.03;74.23;99048.63;3552647;27;20047;-44
2021/04/04 00:23:16;;;;;;;29.45;10.85;;;;;;;2.02;74.39;99050.31;3552625;27;20046;-46
2021/04/04 00:24:57;;;;;;;24.27;10.68;;;;;;;2.03;74.75;99054.63;3553818;27;20059;-45
2021/04/04 00:26:39;;;;;;;22.33;11.90;;;;;;;2.01;75.09;99053.69;3550603;27;20057;-44
2021/04/04 00:28:20;;;;;;;23.02;11.20;;;;;;;2.00;74.83;99059.63;3554053;27;20050;-44
2021/04/04 00:30:05;;;;;;;25.20;11.88;;;;;;;1.99;75.43;99047.66;3552104;27;20074;-44
2021/04/04 00:31:47;;;;;;;22.55;11.18;;;;;;;1.99;75.45;99050.22;3552025;27;20054;-49
2021/04/04 00:33:28;;;;;;;27.23;13.70;;;;;;;1.98;74.72;99048.47;3554935;27;20050;-48
2021/04/04 00:35:13;;;;;;;24.90;11.20;;;;;;;1.98;74.92;99047.59;3549642;27;20058;-48
2021/04/04 00:36:55;;;;;;;25.80;12.30;;;;;;;1.98;74.55;99056.13;3554224;27;20086;-45
2021/04/04 00:38:36;;;;;;;27.33;11.98;;;;;;;1.97;74.62;99053.50;3550531;27;20107;-45
2021/04/04 00:40:20;;;;;;;28.80;11.93;;;;;;;1.97;74.36;99061.19;3554035;27;20152;-48
2021/04/04 00:42:02;;;;;;;23.42;11.35;;;;;;;1.96;74.79;99062.88;3551866;27;20046;-49
2021/04/04 00:43:43;;;;;;;27.70;12.75;;;;;;;1.94;73.84;99064.50;3551792;27;20042;-44
2021/04/04 00:45:27;;;;;;;33.45;15.77;;;;;;;1.93;72.79;99068.72;3552498;27;20039;-49
2021/04/04 00:47:08;;;;;;;34.17;16.40;;;;;;;1.94;72.54;99067.06;3552524;27;20078;-48
2021/04/04 00:48:50;;;;;;;39.03;16.75;;;;;;;1.94;72.12;99067.94;3553616;27;20453;-49
2021/04/04 00:50:34;;;;;;;35.15;17.67;;;;;;;1.98;72.68;99074.03;3549977;27;20047;-48
2021/04/04 00:52:15;;;;;;;34.33;17.30;;;;;;;2.04;73.47;99075.94;3552974;27;20495;-51
2021/04/04 00:53:57;;;;;;;44.17;19.65;;;;;;;2.07;73.53;99073.50;3550171;27;20050;-52
2021/04/04 00:55:39;;;;;;;41.13;19.02;;;;;;;2.10;73.75;99078.75;3551030;27;20054;-48
2021/04/04 00:57:21;;;;;;;50.30;21.33;;;;;;;2.13;73.93;99068.66;3552741;27;20109;-51
2021/04/04 00:59:03;;;;;;;46.38;22.23;;;;;;;2.17;74.25;99065.38;3549890;27;20042;-49
2021/04/04 01:00:45;;;;;;;57.65;24.73;;;;;;;2.21;74.59;99074.03;3553842;27;20042;-48
2021/04/04 01:02:27;;;;;;;64.18;27.90;;;;;;;2.25;74.74;99073.31;3552112;27;20498;-48
2021/04/04 01:04:10;;;;;;;77.00;31.05;;;;;;;2.28;75.06;99070.88;3552974;27;20065;-51
2021/04/04 01:05:54;;;;;;;74.75;30.45;;;;;;;2.30;75.06;99062.44;3553007;27;20051;-44
2021/04/04 01:07:35;;;;;;;81.40;31.00;;;;;;;2.31;75.21;99060.78;3550399;27;20511;-49
2021/04/04 01:09:19;;;;;;;84.75;32.42;;;;;;;2.36;74.94;99068.59;3553312;27;20084;-49
2021/04/04 01:11:01;;;;;;;;;;;;;;;2.35;75.11;99070.28;3550209;27;20050;-49
2021/04/04 01:12:51;;;;;;;86.43;33.70;;;;;;;2.36;75.29;99072.03;3553665;27;19923;-45
2021/04/04 01:14:38;;;;;;;96.15;35.83;;;;;;;2.35;75.14;99070.28;3548732;27;20070;-49
2021/04/04 01:16:26;;;;;;;97.18;36.97;;;;;;;2.35;75.49;99077.09;3552252;27;20039;-45
2021/04/04 01:18:11;;;;;;;103.45;36.65;;;;;;;2.32;75.25;99076.19;3551880;27;20518;-44
2021/04/04 01:20:06;;;;;;;104.07;36.28;;;;;;;2.31;75.43;99076.13;3549730;27;20415;-46
2021/04/04 01:21:52;;;;;;;90.45;34.08;;;;;;;2.30;76.22;99075.22;3553321;27;20050;-45
2021/04/04 01:24:09;;;;;;;94.75;35.05;;;;;;;2.30;76.21;99077.78;3549567;27;20053;-45
2021/04/04 01:26:00;;;;;;;87.90;35.05;;;;;;;2.28;76.56;99063.19;3549842;27;20050;-47
2021/04/04 01:27:47;;;;;;;92.80;36.97;;;;;;;2.28;76.69;99068.31;3553491;27;20042;-47
2021/04/04 01:29:32;;;;;;;89.20;32.70;;;;;;;2.27;76.72;99069.13;3549363;27;20144;-47
2021/04/04 01:31:15;;;;;;;95.05;35.30;;;;;;;2.26;76.59;99072.53;3551113;27;20375;-48
2021/04/04 01:32:58;;;;;;;87.72;34.55;;;;;;;2.25;77.15;99070.75;3551552;27;20464;-46
2021/04/04 01:34:40;;;;;;;91.15;34.33;;;;;;;2.23;77.44;99072.41;3549632;27;20419;-47
2021/04/04 01:36:23;;;;;;;79.85;33.47;;;;;;;2.18;77.18;99068.78;3553590;27;20051;-47
2021/04/04 01:38:12;;;;;;;83.55;34.40;;;;;;;2.21;77.12;99071.47;3549597;27;20403;-46
2021/04/04 01:39:57;;;;;;;84.07;33.20;;;;;;;2.21;76.84;99076.59;3552062;27;20057;-51
2021/04/04 01:41:40;;;;;;;80.93;32.33;;;;;;;2.21;76.98;99062.09;3550853;27;20054;-47
2021/04/04 01:43:24;;;;;;;89.20;36.58;;;;;;;2.24;76.87;99066.47;3549439;27;20053;-46
2021/04/04 01:45:07;;;;;;;84.20;35.08;;;;;;;2.26;76.66;99063.16;3553052;27;20054;-47
2021/04/04 01:46:53;;;;;;;86.68;33.03;;;;;;;2.25;76.55;99066.53;3549091;27;20053;-46
2021/04/04 01:48:35;;;;;;;78.88;33.72;;;;;;;2.26;76.37;99075.94;3552762;27;20054;-47
2021/04/04 01:50:19;;;;;;;76.63;32.00;;;;;;;2.26;74.89;99083.63;3550000;27;20141;-47
2021/04/04 01:52:02;;;;;;;72.43;32.40;;;;;;;2.24;75.32;99087.81;3550382;27;20579;-46
2021/04/04 01:53:44;;;;;;;60.35;26.92;;;;;;;2.23;75.12;99083.50;3552800;27;20515;-51
2021/04/04 01:55:27;;;;;;;60.45;27.10;;;;;;;2.24;74.67;99090.38;3549367;27;20074;-51
2021/04/04 01:57:10;;;;;;;62.42;28.27;;;;;;;2.26;75.16;99082.75;3553290;27;20074;-47
2021/04/04 01:58:53;;;;;;;60.30;27.73;;;;;;;2.29;75.72;99081.19;3549746;27;20053;-47
2021/04/04 02:00:36;;;;;;;54.28;26.73;;;;;;;2.33;75.65;99077.91;3550913;27;20050;-47
2021/04/04 02:02:18;;;;;;;59.00;27.50;;;;;;;2.37;76.10;99075.47;3550348;27;20047;-47
2021/04/04 02:04:04;;;;;;;59.65;28.83;;;;;;;2.41;76.70;99077.31;3549034;27;20047;-47
2021/04/04 02:05:46;;;;;;;60.55;27.27;;;;;;;2.45;76.52;99079.19;3552943;27;20043;-45
2021/04/04 02:07:28;;;;;;;60.80;28.10;;;;;;;2.48;76.26;99074.16;3551952;27;20057;-50
2021/04/04 02:09:13;;;;;;;63.05;26.90;;;;;;;2.49;76.41;99075.91;3552874;27;20047;-51
2021/04/04 02:10:56;;;;;;;72.38;28.35;;;;;;;2.48;76.11;99074.16;3552487;27;20058;-51
2021/04/04 02:12:37;;;;;;;67.90;29.58;;;;;;;2.50;76.05;99075.06;3549706;27;20043;-52
2021/04/04 02:14:22;;;;;;;62.03;29.42;;;;;;;2.49;75.77;99081.03;3551061;27;20055;-53
2021/04/04 02:16:06;;;;;;;61.67;28.17;;;;;;;2.48;75.90;99077.63;3549011;27;20043;-52
2021/04/04 02:17:48;;;;;;;66.40;28.77;;;;;;;2.47;76.05;99080.97;3552854;27;20046;-47
2021/04/04 02:19:31;;;;;;;63.03;28.70;;;;;;;2.46;76.44;99081.78;3552019;27;20050;-46
2021/04/04 02:21:14;;;;;;;61.22;28.00;;;;;;;2.45;76.00;99076.63;3550575;27;20137;-48
2021/04/04 02:22:59;;;;;;;68.88;28.42;;;;;;;2.43;75.91;99075.69;3551241;27;20103;-47
2021/04/04 02:24:41;;;;;;;65.60;27.55;;;;;;;2.42;75.71;99079.06;3549780;27;20095;-47
2021/04/04 02:26:22;;;;;;;68.72;28.30;;;;;;;2.39;75.63;99072.13;3552378;27;20074;-46
2021/04/04 02:28:04;;;;;;;66.68;29.95;;;;;;;2.37;75.62;99075.47;3548942;27;20050;-47
2021/04/04 02:29:46;;;;;;;62.15;28.88;;;;;;;2.35;75.57;99070.28;3552794;27;20058;-47
2021/04/04 02:31:34;;;;;;;58.65;28.08;;;;;;;2.34;76.02;99068.53;3548888;27;20053;-47
2021/04/04 02:33:22;;;;;;;65.93;29.73;;;;;;;2.30;76.28;99070.09;3550021;27;20499;-47
2021/04/04 02:35:07;;;;;;;60.95;27.65;;;;;;;2.28;76.55;99070.88;3552260;27;20446;-46
2021/04/04 02:36:49;;;;;;;72.72;28.13;;;;;;;2.25;76.64;99070.75;3549036;27;20050;-51
2021/04/04 02:38:34;;;;;;;65.75;28.58;;;;;;;2.22;76.88;99068.97;3552577;27;20050;-53
2021/04/04 02:40:17;;;;;;;63.50;27.42;;;;;;;2.18;76.59;99056.88;3548973;27;20043;-52
2021/04/04 02:42:00;;;;;;;56.70;26.65;;;;;;;2.17;75.80;99061.94;3550517;27;20043;-53
2021/04/04 02:43:44;;;;;;;54.88;25.02;;;;;;;2.13;75.49;99061.81;3552454;27;20492;-51
2021/04/04 02:45:28;;;;;;;58.63;25.58;;;;;;;2.13;75.47;99058.41;3549655;27;20420;-48
2021/04/04 02:47:12;;;;;;;;;;;;;;;2.13;75.90;99056.72;3538756;28;20104;-47
2021/04/04 02:48:56;;;;;;;53.55;25.00;;;;;;;2.14;76.46;99055.00;3545710;27;20351;-51
2021/04/04 02:50:38;;;;;;;60.75;25.85;;;;;;;2.16;76.87;99053.38;3551823;27;20078;-51
2021/04/04 02:52:21;;;;;;;55.38;26.13;;;;;;;2.14;76.68;99053.31;3549579;27;20043;-51
2021/04/04 02:54:04;;;;;;;53.88;24.33;;;;;;;2.17;77.05;99054.28;3549792;27;20057;-52
2021/04/04 02:55:47;;;;;;;47.72;22.83;;;;;;;2.19;77.47;99056.06;3552067;27;20059;-50
2021/04/04 02:57:31;;;;;;;53.70;24.40;;;;;;;2.20;77.00;99047.59;3547516;27;20520;-51
2021/04/04 02:59:14;;;;;;;;;;;;;;;2.22;76.82;99052.72;3554696;27;20047;-51
2021/04/04 03:01:00;;;;;;;37.33;18.60;;;;;;;2.25;77.09;99052.84;3551475;27;19973;-53
2021/04/04 03:02:42;;;;;;;37.10;18.55;;;;;;;2.27;76.63;99056.34;3553691;27;20054;-50
2021/04/04 03:04:25;;;;;;;34.22;18.05;;;;;;;2.32;76.19;99059.94;3555286;27;20182;-50
2021/04/04 03:06:08;;;;;;;34.72;16.67;;;;;;;2.35;76.13;99062.63;3553737;27;20050;-50
2021/04/04 03:07:51;;;;;;;30.73;15.10;;;;;;;2.40;76.01;99073.03;3553931;27;20074;-51
2021/04/04 03:09:34;;;;;;;30.88;15.00;;;;;;;2.42;75.97;99071.38;3552340;27;20117;-52
2021/04/04 03:11:16;;;;;;;31.83;15.80;;;;;;;2.43;75.74;99074.00;3554599;27;20050;-51
2021/04/04 03:12:59;;;;;;;27.02;14.57;;;;;;;2.46;75.65;99078.34;3551369;27;20411;-53
2021/04/04 03:14:41;;;;;;;32.13;15.57;;;;;;;2.45;75.26;99072.38;3541353;27;20042;-51
2021/04/04 03:16:24;;;;;;;38.28;18.73;;;;;;;2.46;75.87;99070.69;3553014;27;20503;-51
2021/04/04 03:18:06;;;;;;;39.40;18.83;;;;;;;2.46;76.06;99068.13;3550811;27;20066;-51
2021/04/04 03:19:48;;;;;;;35.80;19.70;;;;;;;2.46;76.28;99065.56;3555020;27;20053;-51
2021/04/04 03:21:32;;;;;;;43.15;19.13;;;;;;;2.46;76.48;99071.53;3551228;27;20051;-46
2021/04/04 03:23:16;;;;;;;34.15;17.45;;;;;;;2.45;75.96;99077.50;3553196;27;20503;-47
2021/04/04 03:24:59;;;;;;;34.72;17.10;;;;;;;2.44;75.89;99077.44;3554706;27;20086;-46
2021/04/04 03:26:42;;;;;;;33.53;17.35;;;;;;;2.40;75.79;99079.00;3551284;27;20080;-46
2021/04/04 03:28:24;;;;;;;41.45;18.10;;;;;;;2.38;75.68;99083.22;3554284;27;20535;-47
2021/04/04 03:30:07;;;;;;;35.40;17.92;;;;;;;2.37;75.60;99083.16;3553202;27;20047;-46
2021/04/04 03:31:50;;;;;;;39.28;19.10;;;;;;;2.33;75.75;99092.41;3554749;27;20062;-50
2021/04/04 03:33:32;;;;;;;38.80;18.65;;;;;;;2.30;74.71;99098.25;3550183;27;20051;-52
2021/04/04 03:35:14;;;;;;;35.40;17.20;;;;;;;2.28;74.22;99093.91;3552473;27;20103;-50
2021/04/04 03:36:57;;;;;;;42.70;18.35;;;;;;;2.26;75.84;99098.09;3554185;27;20127;-51
2021/04/04 03:38:39;;;;;;;37.95;17.25;;;;;;;2.25;76.73;99097.25;3550804;27;20363;-52
2021/04/04 03:40:21;;;;;;;33.70;17.85;;;;;;;2.26;77.09;99096.41;3554810;27;20054;-46
2021/04/04 03:42:03;;;;;;;31.77;16.40;;;;;;;2.27;75.81;99092.16;3550948;27;20043;-46
2021/04/04 03:43:48;;;;;;;32.28;16.70;;;;;;;2.28;76.09;99099.03;3553717;27;20074;-46
2021/04/04 03:45:30;;;;;;;31.27;16.92;;;;;;;2.30;76.86;99100.81;3551208;27;20058;-47
2021/04/04 03:47:12;;;;;;;34.15;17.05;;;;;;;2.30;77.60;99097.41;3551719;27;20039;-47
2021/04/04 03:48:55;;;;;;;35.97;17.98;;;;;;;2.30;78.06;99105.06;3553942;27;20054;-46
2021/04/04 03:50:38;;;;;;;33.30;17.38;;;;;;;2.30;78.56;99105.06;3552947;27;20070;-46
2021/04/04 03:52:21;;;;;;;32.03;16.70;;;;;;;2.30;78.96;99107.63;3554259;27;20074;-46
2021/04/04 03:54:04;;;;;;;34.97;17.48;;;;;;;2.29;79.17;99109.31;3550689;27;20066;-51
2021/04/04 03:55:50;;;;;;;37.33;18.00;;;;;;;2.32;78.55;99111.13;3553746;27;20042;-53
2021/04/04 03:57:33;;;;;;;33.40;16.83;;;;;;;2.33;79.39;99110.31;3551972;27;20057;-51
2021/04/04 03:59:16;;;;;;;31.70;17.27;;;;;;;2.36;79.48;99107.88;3550901;27;20526;-46
2021/04/04 04:01:00;;;;;;;36.35;17.95;;;;;;;2.40;79.59;99106.31;3553122;27;20118;-46
2021/04/04 04:02:44;;;;;;;37.60;18.60;;;;;;;2.44;79.52;99106.44;3550511;27;20400;-46
2021/04/04 04:04:26;;;;;;;39.55;19.25;;;;;;;2.48;79.61;99107.44;3554144;27;20415;-47
2021/04/04 04:06:09;;;;;;;35.38;17.98;;;;;;;2.52;79.78;99111.88;3551547;27;20324;-46
2021/04/04 04:07:52;;;;;;;38.58;19.90;;;;;;;2.55;78.85;99105.97;3552210;27;20050;-47
2021/04/04 04:09:34;;;;;;;38.47;17.93;;;;;;;2.58;78.97;99113.78;3552721;27;20054;-46
2021/04/04 04:11:17;;;;;;;37.75;20.27;;;;;;;2.60;79.47;99109.56;3550629;27;20283;-46
2021/04/04 04:13:00;;;;;;;37.13;20.27;;;;;;;2.65;79.66;99115.75;3553624;27;20418;-46
2021/04/04 04:14:42;;;;;;;43.25;22.27;;;;;;;2.68;79.56;99119.28;3549375;27;20047;-46
2021/04/04 04:16:24;;;;;;;43.78;21.17;;;;;;;2.72;79.16;99122.81;3553323;27;20058;-46
2021/04/04 04:18:08;;;;;;;43.70;20.65;;;;;;;2.75;79.29;99119.50;3550900;27;20502;-46
2021/04/04 04:19:51;;;;;;;39.30;19.27;;;;;;;2.77;78.13;99129.00;3551759;27;20059;-46
2021/04/04 04:21:33;;;;;;;32.35;18.30;;;;;;;2.79;77.85;99127.34;3552512;27;20046;-47
2021/04/04 04:23:15;;;;;;;36.40;18.15;;;;;;;2.81;78.16;99125.72;3550316;27;20038;-46
2021/04/04 04:24:57;;;;;;;34.33;18.92;;;;;;;2.86;78.51;99134.44;3554131;27;20092;-46
2021/04/04 04:26:41;;;;;;;33.72;17.75;;;;;;;2.89;77.78;99131.13;3550258;27;20053;-46
2021/04/04 04:28:25;;;;;;;35.33;19.60;;;;;;;2.93;78.06;99132.09;3553390;27;20503;-46
2021/04/04 04:30:08;;;;;;;37.80;19.95;;;;;;;2.98;78.92;99130.56;3551221;27;20065;-47
2021/04/04 04:31:53;;;;;;;34.72;19.17;;;;;;;3.04;79.13;99135.91;3552852;27;20113;-47
2021/04/04 04:33:36;;;;;;;33.88;19.35;;;;;;;3.10;79.37;99131.00;3553104;27;20046;-47
2021/04/04 04:35:20;;;;;;;37.22;18.75;;;;;;;3.14;79.63;99139.66;3552491;27;20039;-46
2021/04/04 04:37:02;;;;;;;;;;;;;;;3.19;79.09;99139.00;3554189;27;20566;-48
2021/04/04 04:38:44;;;;;;;41.30;19.92;;;;;;;3.22;78.68;99136.56;3550145;27;19981;-47
2021/04/04 04:40:26;;;;;;;37.00;19.52;;;;;;;3.27;77.99;99142.69;3551893;27;20062;-46
2021/04/04 04:42:10;;;;;;;41.58;20.20;;;;;;;3.32;78.04;99141.97;3552147;27;20047;-46
2021/04/04 04:43:56;;;;;;;41.88;19.73;;;;;;;3.36;77.75;99139.56;3550702;27;20043;-54
2021/04/04 04:45:40;;;;;;;43.17;19.70;;;;;;;3.40;78.23;99135.41;3539669;28;20047;-53
2021/04/04 04:47:21;;;;;;;40.05;18.98;;;;;;;3.46;78.54;99131.34;3549477;27;20499;-51
2021/04/04 04:49:06;;;;;;;37.50;17.88;;;;;;;3.50;78.57;99139.16;3552995;27;20081;-50
2021/04/04 04:50:47;;;;;;;37.08;17.98;;;;;;;3.52;78.63;99137.50;3552226;27;20099;-47
2021/04/04 04:52:29;;;;;;;36.63;17.30;;;;;;;3.54;78.93;99134.19;3552622;27;20082;-46
2021/04/04 04:54:10;;;;;;;34.05;16.40;;;;;;;3.58;78.41;99140.28;3553414;27;20053;-47
2021/04/04 04:55:54;;;;;;;31.30;15.38;;;;;;;3.62;78.66;99148.13;3549936;27;20074;-46
2021/04/04 04:57:36;;;;;;;31.08;14.82;;;;;;;3.66;78.80;99138.84;3553562;27;20551;-47
2021/04/04 04:59:18;;;;;;;26.23;14.40;;;;;;;3.71;77.92;99144.13;3551301;27;20499;-47
2021/04/04 05:01:03;;;;;;;32.70;15.43;;;;;;;3.82;78.18;99135.06;3553111;27;20047;-47
2021/04/04 05:02:45;;;;;;;27.65;13.80;;;;;;;3.91;77.99;99143.06;3550857;27;20078;-48
2021/04/04 05:04:28;;;;;;;28.25;14.45;;;;;;;3.94;77.70;99137.16;3551331;27;20178;-47
2021/04/04 05:06:11;;;;;;;29.45;15.02;;;;;;;3.97;78.48;99138.13;3551937;27;20054;-46
2021/04/04 05:07:53;;;;;;;34.60;15.80;;;;;;;4.03;78.32;99140.00;3550042;27;20096;-47
2021/04/04 05:09:35;;;;;;;29.25;14.80;;;;;;;4.11;77.64;99136.00;3553502;27;20428;-47
2021/04/04 05:11:18;;;;;;;25.20;13.52;;;;;;;4.19;77.15;99136.22;3549536;27;20042;-47
2021/04/04 05:13:03;;;;;;;30.17;14.33;;;;;;;4.32;76.55;99140.00;3550676;27;20093;-47
2021/04/04 05:14:44;;;;;;;26.55;14.55;;;;;;;4.42;76.12;99147.16;3551362;27;20050;-48
2021/04/04 05:16:30;;;;;;;27.02;13.43;;;;;;;4.48;75.73;99149.94;3551065;27;20051;-47
2021/04/04 05:18:11;;;;;;;30.20;14.82;;;;;;;4.53;76.39;99143.25;3553325;27;20054;-48
2021/04/04 05:19:56;;;;;;;28.98;14.40;;;;;;;4.58;76.51;99151.06;3549935;27;20054;-48
2021/04/04 05:21:39;;;;;;;29.27;13.35;;;;;;;4.62;76.43;99145.19;3552735;27;20046;-48
2021/04/04 05:23:23;;;;;;;28.40;14.70;;;;;;;4.67;76.40;99147.88;3551603;27;20078;-47
2021/04/04 05:25:06;;;;;;;27.13;14.10;;;;;;;4.71;76.98;99157.44;3552405;27;20043;-47
2021/04/04 05:26:48;;;;;;;24.98;12.88;;;;;;;4.75;76.90;99156.69;3553029;27;20058;-47
2021/04/04 05:28:32;;;;;;;20.95;11.13;;;;;;;4.82;78.02;99156.03;3549760;27;20077;-50
2021/04/04 05:30:14;;;;;;;23.90;11.40;;;;;;;4.93;78.51;99159.75;3553358;27;20051;-47
2021/04/04 05:31:57;;;;;;;20.30;11.27;;;;;;;5.09;77.96;99155.91;3549463;27;20099;-46
2021/04/04 05:33:39;;;;;;;19.40;10.95;;;;;;;5.22;77.76;99158.81;3552825;27;20054;-47
2021/04/04 05:35:23;;;;;;;19.77;9.30;;;;;;;5.29;76.45;99159.03;3550535;27;20049;-48
2021/04/04 05:37:07;;;;;;;16.75;9.45;;;;;;;5.36;74.53;99162.66;3550172;27;20047;-48
2021/04/04 05:38:48;;;;;;;17.23;7.45;;;;;;;5.41;75.34;99167.91;3552968;27;20054;-47
2021/04/04 05:40:30;;;;;;;12.82;7.38;;;;;;;5.44;75.11;99162.84;3549593;27;20035;-47
2021/04/04 05:42:12;;;;;;;12.90;7.50;;;;;;;5.48;74.56;99164.66;3553056;27;20050;-48
2021/04/04 05:43:56;;;;;;;12.43;7.25;;;;;;;5.51;74.38;99162.16;3550890;27;20047;-46
2021/04/04 05:45:45;;;;;;;13.40;7.80;;;;;;;5.50;73.54;99169.03;3551625;27;20059;-47
2021/04/04 05:47:36;;;;;;;15.32;7.80;;;;;;;5.49;73.84;99166.41;3551940;27;20423;-52
2021/04/04 05:49:22;;;;;;;19.38;8.07;;;;;;;5.45;73.78;99167.16;3549527;27;20103;-52
2021/04/04 05:51:32;;;;;;;12.07;6.65;;;;;;;5.40;74.18;99173.88;3552492;27;20051;-51
2021/04/04 05:53:22;;;;;;;13.18;6.80;;;;;;;5.37;73.05;99169.53;3548992;27;20046;-50
2021/04/04 05:55:13;;;;;;;12.35;6.13;;;;;;;5.33;73.54;99171.13;3549604;27;20039;-53
2021/04/04 05:56:59;;;;;;;14.48;6.70;;;;;;;5.28;74.16;99183.00;3553111;27;20078;-50
2021/04/04 05:58:47;;;;;;;13.32;7.07;;;;;;;5.26;74.29;99183.81;3549832;27;20049;-51
2021/04/04 06:00:34;;;;;;;13.48;6.53;;;;;;;5.25;74.23;99182.91;3551959;27;20043;-53
2021/04/04 06:02:55;;;;;;;20.30;8.50;;;;;;;5.28;73.74;99184.72;3554017;27;20137;-53
2021/04/04 06:05:01;;;;;;;13.73;6.82;;;;;;;5.32;73.96;99184.84;3549996;27;20046;-54
2021/04/04 06:06:55;;;;;;;10.95;6.70;;;;;;;5.39;74.17;99185.00;3548957;27;20047;-51
2021/04/04 06:08:50;;;;;;;18.08;7.70;;;;;;;5.44;74.57;99189.44;3553181;27;20049;-53
2021/04/04 06:10:39;;;;;;;;;;;;;;;5.50;74.33;99189.59;3551284;27;20056;-54
2021/04/04 06:12:28;;;;;;;16.05;6.93;;;;;;;5.56;73.67;99186.31;3551660;27;19923;-53
2021/04/04 06:14:19;;;;;;;14.43;7.32;;;;;;;5.63;73.33;99190.78;3551152;27;20050;-54
2021/04/04 06:16:14;;;;;;;13.73;7.30;;;;;;;5.67;73.34;99187.44;3551343;27;20066;-53
2021/04/04 06:18:08;;;;;;;10.48;6.13;;;;;;;5.72;72.78;99183.28;3551981;27;20053;-49
2021/04/04 06:19:59;;;;;;;12.32;6.28;;;;;;;5.77;72.94;99185.97;3551137;27;20511;-53
2021/04/04 06:21:48;;;;;;;12.52;6.10;;;;;;;5.81;73.29;99186.94;3550331;27;20169;-51
2021/04/04 06:23:38;;;;;;;10.15;4.95;;;;;;;5.83;73.45;99190.41;3552708;27;20053;-51
2021/04/04 06:25:34;;;;;;;10.52;5.65;;;;;;;5.86;72.49;99187.91;3549208;27;20042;-52
2021/04/04 06:27:25;;;;;;;8.35;5.10;;;;;;;5.90;72.65;99187.16;3551484;27;20431;-52
2021/04/04 06:29:16;;;;;;;7.72;4.60;;;;;;;5.96;72.44;99189.00;3552426;27;20046;-51
2021/04/04 06:31:04;;;;;;;7.18;4.57;;;;;;;5.98;72.82;99193.38;3549114;27;20061;-53
2021/04/04 06:32:56;;;;;;;10.57;5.22;;;;;;;6.02;72.71;99194.31;3551312;27;20050;-53
2021/04/04 06:34:41;;;;;;;8.13;4.93;;;;;;;6.08;73.03;99200.47;3553050;27;20078;-54
2021/04/04 06:36:35;;;;;;;8.15;5.05;;;;;;;6.17;73.14;99205.00;3551200;27;20061;-53
2021/04/04 06:38:45;;;;;;;;;;;;;;;6.21;72.71;99199.06;3552992;27;20499;-52
2021/04/04 06:40:37;;;;;;;13.70;4.68;;;;;;;6.29;72.14;99209.53;3550699;27;19927;-54
2021/04/04 06:42:25;;;;;;;8.50;5.13;;;;;;;6.31;71.90;99205.28;3548733;27;20521;-55
2021/04/04 06:44:17;;;;;;;8.73;5.10;;;;;;;6.33;72.26;99201.06;3552342;27;20420;-51
2021/04/04 06:46:07;;;;;;;9.70;5.40;;;;;;;6.32;72.43;99205.31;3548854;27;20042;-55
2021/04/04 06:48:04;;;;;;;9.57;5.15;;;;;;;6.47;72.03;99209.97;3550401;27;20091;-51
2021/04/04 06:50:03;;;;;;;7.70;4.75;;;;;;;6.68;71.53;99212.16;3552413;27;20054;-54
2021/04/04 06:51:54;;;;;;;7.45;4.22;;;;;;;6.80;70.29;99211.53;3549028;27;20184;-52
2021/04/04 06:53:53;;;;;;;8.27;4.90;;;;;;;6.85;70.36;99209.06;3551250;27;20043;-51
2021/04/04 06:55:43;;;;;;;7.55;4.60;;;;;;;6.92;70.13;99212.63;3550031;27;20118;-55
2021/04/04 06:57:43;;;;;;;11.98;4.47;;;;;;;6.92;69.79;99204.91;3550932;27;20111;-50
2021/04/04 06:59:32;;;;;;;9.18;4.65;;;;;;;6.93;69.60;99216.94;3551850;27;20058;-53
2021/04/04 07:01:29;;;;;;;9.43;4.35;;;;;;;6.92;69.95;99222.97;3550308;27;20089;-51
2021/04/04 07:03:18;;;;;;;8.77;4.15;;;;;;;6.91;70.38;99223.78;3549319;27;20046;-55
2021/04/04 07:05:07;;;;;;;6.85;3.97;;;;;;;6.93;69.64;99223.00;3552316;27;20058;-50
2021/04/04 07:07:18;;;;;;;7.85;4.63;;;;;;;6.95;69.64;99226.47;3551063;27;20050;-52
2021/04/04 07:09:13;;;;;;;10.60;5.90;;;;;;;7.07;70.02;99225.84;3548899;27;20047;-52
2021/04/04 07:11:03;;;;;;;8.50;4.65;;;;;;;7.12;69.32;99225.97;3538072;28;20047;-48
2021/04/04 07:13:00;;;;;;;8.05;5.00;;;;;;;7.14;69.40;99222.59;3548376;27;20095;-50
2021/04/04 07:14:53;;;;;;;8.35;4.50;;;;;;;7.13;69.07;99226.00;3539691;27;20402;-52
2021/04/04 07:16:50;;;;;;;10.77;4.55;;;;;;;7.14;68.75;99224.28;3551890;27;20043;-50
2021/04/04 07:18:44;;;;;;;9.05;4.72;;;;;;;7.14;69.23;99221.69;3548396;27;20457;-52
2021/04/04 07:20:55;;;;;;;8.63;4.70;;;;;;;7.22;69.16;99225.31;3549997;27;20404;-52
2021/04/04 07:22:58;;;;;;;6.35;4.20;;;;;;;7.33;69.55;99226.38;3538333;28;20082;-52
2021/04/04 07:24:53;;;;;;;11.63;5.65;;;;;;;7.49;69.69;99230.13;3548588;27;20062;-51
2021/04/04 07:26:48;;;;;;;9.70;5.03;;;;;;;7.67;68.93;99226.16;3550820;27;20043;-53
2021/04/04 07:28:57;;;;;;;10.57;5.03;;;;;;;7.80;67.60;99222.97;3537831;28;20090;-54
2021/04/04 07:30:41;;;;;;;9.88;5.15;;;;;;;7.87;66.98;99222.22;3550335;27;20054;-51
2021/04/04 07:32:31;;;;;;;7.90;5.40;;;;;;;7.96;66.30;99221.50;3549595;27;20053;-46
2021/04/04 07:34:15;;;;;;;9.77;5.25;;;;;;;8.17;66.57;99221.84;3551388;27;20050;-47
2021/04/04 07:36:04;;;;;;;10.90;5.53;;;;;;;8.45;64.99;99209.38;3548424;27;20081;-47
2021/04/04 07:37:48;;;;;;;10.43;4.93;;;;;;;8.65;63.14;99217.38;3552227;27;20058;-48
2021/04/04 07:39:34;;;;;;;7.50;4.97;;;;;;;8.75;63.32;99215.81;3550591;27;20438;-47
2021/04/04 07:41:24;;;;;;;11.35;5.72;;;;;;;8.78;63.70;99215.84;3550161;27;20043;-48
2021/04/04 07:43:08;;;;;;;9.30;5.13;;;;;;;8.83;63.95;99224.53;3551070;27;20050;-45
2021/04/04 07:44:55;;;;;;;9.18;5.47;;;;;;;8.84;62.46;99213.34;3549437;27;20518;-47
2021/04/04 07:46:47;;;;;;;8.77;5.43;;;;;;;8.86;63.42;99219.41;3554390;27;20058;-48
2021/04/04 07:48:37;;;;;;;8.40;4.68;;;;;;;8.88;62.28;99222.88;3551391;27;20115;-49
2021/04/04 07:50:26;;;;;;;8.30;4.55;;;;;;;8.87;61.77;99226.31;3552199;27;20043;-48
2021/04/04 07:52:17;;;;;;;7.35;4.90;;;;;;;8.82;62.21;99221.91;3567292;27;20054;-46
2021/04/04 07:54:02;;;;;;;7.60;4.95;;;;;;;8.78;62.69;99224.50;3554012;27;20058;-48
2021/04/04 07:55:50;;;;;;;8.40;4.68;;;;;;;8.80;62.75;99216.75;3553823;27;20046;-48
2021/04/04 07:57:46;;;;;;;10.15;5.00;;;;;;;8.88;62.63;99219.44;3551878;27;20078;-47
2021/04/04 07:59:32;;;;;;;9.85;4.85;;;;;;;8.91;61.64;99224.66;3551283;27;20046;-47
2021/04/04 08:01:18;;;;;;;7.35;4.75;;;;;;;8.96;61.52;99218.69;3554051;27;20042;-48
2021/04/04 08:03:09;;;;;;;9.68;5.03;;;;;;;9.03;61.93;99219.63;3550483;27;20480;-47
2021/04/04 08:04:52;;;;;;;6.65;4.35;;;;;;;9.19;61.94;99214.63;3552186;27;20051;-46
2021/04/04 08:06:40;;;;;;;6.38;4.00;;;;;;;9.43;61.68;99219.25;3552489;27;20059;-46
2021/04/04 08:08:29;;;;;;;6.50;4.32;;;;;;;9.72;60.72;99211.78;3550750;27;20074;-46
2021/04/04 08:10:13;;;;;;;8.10;4.40;;;;;;;9.95;59.25;99211.13;3554340;27;20051;-46
2021/04/04 08:12:06;;;;;;;6.53;4.40;;;;;;;10.17;59.43;99213.03;3550774;27;20082;-46
2021/04/04 08:13:57;;;;;;;7.18;4.15;;;;;;;10.38;56.87;99217.50;3551244;27;20073;-49
2021/04/04 08:15:44;;;;;;;6.57;3.83;;;;;;;10.60;57.21;99213.34;3553146;27;20082;-48
2021/04/04 08:17:26;;;;;;;6.13;4.32;;;;;;;10.65;56.31;99214.25;3550391;27;20101;-47